createdAt,value
2022-08-20T09:53:01.685Z,686.25
2022-08-20T09:57:35.218Z,787.50
2022-08-20T09:58:35.195Z,753.75
2022-08-20T09:59:35.174Z,742.50
2022-08-20T10:00:35.178Z,691.88
2022-08-20T10:04:38.342Z,686.25
2022-08-20T10:06:04.023Z,742.50
2022-08-20T10:07:04.001Z,748.13
2022-08-20T10:08:03.974Z,691.88
2022-08-20T10:17:12.099Z,568.13
2022-08-20T10:18:12.186Z,596.25
2022-08-20T10:19:12.059Z,573.75
2022-08-20T10:28:18.880Z,810.00
2022-08-20T10:29:18.849Z,815.63
2022-08-20T10:30:18.849Z,804.38
2022-08-20T10:31:18.824Z,731.25
2022-08-20T10:37:10.607Z,641.25
2022-08-20T10:44:44.512Z,630.00
2022-08-20T10:45:44.497Z,585.00
2022-08-20T10:46:44.472Z,534.38
2022-08-20T11:08:33.697Z,798.75
2022-08-20T11:09:26.609Z,810.00
2022-08-20T11:10:26.641Z,826.88
2022-08-20T11:11:26.572Z,804.38
2022-08-20T11:12:26.566Z,736.88
2022-08-20T11:21:42.956Z,804.38
2022-08-20T11:22:42.928Z,821.25
2022-08-20T11:23:42.915Z,759.38
2022-08-20T11:24:42.911Z,624.38
2022-08-20T11:34:01.405Z,579.38
2022-08-20T11:35:13.736Z,613.13
2022-08-20T11:36:01.339Z,658.13
2022-08-20T11:37:01.338Z,703.13
2022-08-20T11:38:01.325Z,635.63
2022-08-20T11:39:01.300Z,579.38
2022-08-20T11:40:01.302Z,528.75
2022-08-20T11:44:26.732Z,641.25
2022-08-20T11:45:26.704Z,646.88
2022-08-20T11:46:28.714Z,708.75
2022-08-20T11:47:26.666Z,708.75
2022-08-20T11:48:26.655Z,680.63
2022-08-20T11:49:26.649Z,635.63
2022-08-20T11:50:26.628Z,646.88
2022-08-20T11:51:26.627Z,579.38
2022-08-20T11:52:26.601Z,652.50
2022-08-20T11:53:26.589Z,675.00
2022-08-20T11:54:26.587Z,691.88
2022-08-20T11:55:28.463Z,675.00
2022-08-20T11:56:26.571Z,596.25
2022-08-20T12:00:32.106Z,646.88
2022-08-20T12:01:31.018Z,686.25
2022-08-20T12:02:31.030Z,551.25
2022-08-20T12:03:30.970Z,568.13
2022-08-20T12:04:30.956Z,483.75
2022-08-20T12:09:50.386Z,708.75
2022-08-20T12:10:45.726Z,765.00
2022-08-20T12:11:45.726Z,765.00
2022-08-20T12:12:45.701Z,776.25
2022-08-20T12:13:48.448Z,736.88
2022-08-20T12:14:45.685Z,579.38
2022-08-20T12:15:45.663Z,590.63
2022-08-20T12:19:06.467Z,843.75
2022-08-20T12:20:06.432Z,843.75
2022-08-20T12:21:06.433Z,826.88
2022-08-20T12:22:24.474Z,787.50
2022-08-20T12:23:06.405Z,736.88
2022-08-20T12:24:06.384Z,720.00
2022-08-20T12:25:06.380Z,686.25
2022-08-20T12:26:06.373Z,663.75
2022-08-20T12:27:06.349Z,652.50
2022-08-20T12:28:06.346Z,675.00
2022-08-20T12:29:06.334Z,714.38
2022-08-20T12:30:06.316Z,703.13
2022-08-20T12:31:06.315Z,686.25
2022-08-20T12:32:06.309Z,731.25
2022-08-20T12:33:06.278Z,793.13
2022-08-20T12:34:06.268Z,821.25
2022-08-20T12:35:06.289Z,742.50
2022-08-20T12:36:06.269Z,838.13
2022-08-20T12:37:06.240Z,798.75
2022-08-20T12:38:06.224Z,804.38
2022-08-20T12:39:06.215Z,793.13
2022-08-20T12:40:06.279Z,770.63
2022-08-20T12:41:06.203Z,759.38
2022-08-20T12:42:06.187Z,770.63
2022-08-20T12:43:06.179Z,804.38
2022-08-20T12:44:06.157Z,798.75
2022-08-20T12:45:06.149Z,759.38
2022-08-20T12:49:03.182Z,883.13
2022-08-20T12:50:03.126Z,860.63
2022-08-20T12:51:03.129Z,866.25
2022-08-20T12:52:03.110Z,894.38
2022-08-20T12:53:03.099Z,877.50
2022-08-20T12:54:03.081Z,888.75
2022-08-20T12:55:03.067Z,933.75
2022-08-20T12:56:03.071Z,984.38
2022-08-20T12:57:03.048Z,978.75
2022-08-20T12:58:03.039Z,928.13
2022-08-20T12:59:03.037Z,787.50
2022-08-20T13:00:03.026Z,860.63
2022-08-20T13:01:03.068Z,843.75
2022-08-20T13:02:09.257Z,703.13
2022-08-20T13:03:02.992Z,810.00
2022-08-20T13:04:02.989Z,804.38
2022-08-20T13:05:05.225Z,787.50
2022-08-20T13:06:02.975Z,804.38
2022-08-20T13:07:02.952Z,804.38
2022-08-20T13:08:02.935Z,826.88
2022-08-20T13:09:02.931Z,838.13
2022-08-20T13:10:02.916Z,804.38
2022-08-20T13:11:02.913Z,765.00
2022-08-20T13:12:02.903Z,753.75
2022-08-20T13:13:02.885Z,793.13
2022-08-20T13:14:02.877Z,860.63
2022-08-20T13:15:02.875Z,888.75
2022-08-20T13:16:02.873Z,905.63
2022-08-20T13:17:02.858Z,1068.75
2022-08-20T13:18:02.850Z,573.75
2022-08-20T13:20:38.282Z,1136.25
2022-08-20T13:21:38.293Z,697.50
2022-08-20T13:22:38.270Z,703.13
2022-08-20T13:29:38.980Z,697.50
2022-08-20T13:30:38.955Z,1321.88
2022-08-20T13:31:38.966Z,3026.25
2022-08-20T13:32:38.942Z,2941.88
2022-08-20T13:33:38.935Z,3588.75
2022-08-20T13:34:38.932Z,3386.25
2022-08-20T13:37:10.476Z,3301.88
2022-08-20T13:38:10.438Z,2947.50
2022-08-20T13:39:10.427Z,866.25
2022-08-20T13:40:10.468Z,3161.25
2022-08-20T13:41:10.408Z,3375.00
2022-08-20T13:42:10.410Z,3195.00
2022-08-20T13:43:12.026Z,3296.25
2022-08-20T13:44:10.386Z,3273.75
2022-08-20T13:45:10.369Z,2896.88
2022-08-20T13:46:10.359Z,3195.00
2022-08-20T13:47:10.363Z,3352.50
2022-08-20T13:48:14.913Z,3470.63
2022-08-20T13:49:10.342Z,3560.63
2022-08-20T13:50:10.327Z,3335.63
2022-08-20T13:51:10.325Z,3082.50
2022-08-20T13:52:10.320Z,3352.50
2022-08-20T13:53:10.298Z,3200.63
2022-08-20T13:54:10.801Z,3301.88
2022-08-20T13:55:10.294Z,3363.75
2022-08-20T13:56:10.279Z,2998.13
2022-08-20T13:57:10.267Z,2581.88
2022-08-20T13:58:10.260Z,1389.38
2022-08-20T14:00:22.166Z,720.00
2022-08-20T14:05:07.392Z,2233.13
2022-08-20T14:06:07.366Z,2160.00
2022-08-20T14:07:07.376Z,2188.13
2022-08-20T14:08:07.351Z,877.50
2022-08-20T14:09:07.355Z,855.00
2022-08-20T14:10:07.344Z,939.38
2022-08-20T14:11:07.325Z,2064.38
2022-08-20T14:12:07.326Z,1906.88
2022-08-20T14:13:07.316Z,877.50
2022-08-20T14:14:07.303Z,770.63
2022-08-20T14:15:07.290Z,731.25
2022-08-20T14:16:07.277Z,748.13
2022-08-20T14:17:07.279Z,838.13
2022-08-20T14:18:07.267Z,2137.50
2022-08-20T14:19:07.248Z,815.63
2022-08-20T14:20:07.235Z,663.75
2022-08-20T14:24:21.492Z,2778.75
2022-08-20T14:25:21.474Z,2694.38
2022-08-20T14:26:21.468Z,2885.63
2022-08-20T14:27:21.460Z,2863.13
2022-08-20T14:28:21.468Z,2981.25
2022-08-20T14:29:21.449Z,2947.50
2022-08-20T14:30:21.435Z,2621.25
2022-08-20T14:31:21.427Z,2615.63
2022-08-20T14:32:21.416Z,2851.88
2022-08-20T14:33:21.418Z,2660.63
2022-08-20T14:34:21.387Z,2666.25
2022-08-20T14:35:21.380Z,2790.00
2022-08-20T14:36:21.372Z,2818.13
2022-08-20T14:37:21.371Z,2919.38
2022-08-20T14:38:21.379Z,2773.13
2022-08-20T14:39:21.346Z,2514.38
2022-08-20T14:40:21.395Z,2649.38
2022-08-20T14:41:21.333Z,2694.38
2022-08-20T14:42:21.326Z,2615.63
2022-08-20T14:43:21.337Z,2671.88
2022-08-20T14:44:21.308Z,2660.63
2022-08-20T14:45:21.313Z,2520.00
2022-08-20T14:46:21.304Z,2103.75
2022-08-20T14:48:40.349Z,2109.38
2022-08-20T14:49:40.300Z,2103.75
2022-08-20T14:50:40.295Z,2542.50
2022-08-20T14:51:40.289Z,2491.88
2022-08-20T14:52:40.289Z,2626.88
2022-08-20T14:53:40.791Z,2733.75
2022-08-20T14:54:40.300Z,2649.38
2022-08-20T14:55:40.263Z,2576.25
2022-08-20T14:56:40.251Z,1029.38
2022-08-20T14:57:40.254Z,2649.38
2022-08-20T14:58:40.249Z,2671.88
2022-08-20T14:59:40.231Z,2379.38
2022-08-20T15:00:40.275Z,680.63
2022-08-20T15:03:53.511Z,1057.50
2022-08-20T15:05:00.044Z,776.25
2022-08-20T15:06:15.279Z,2351.25
2022-08-20T15:07:13.162Z,2548.13
2022-08-20T15:08:11.135Z,2531.25
2022-08-20T15:09:11.054Z,2491.88
2022-08-20T15:10:11.040Z,2508.75
2022-08-20T15:11:11.040Z,2649.38
2022-08-20T15:12:11.022Z,2542.50
2022-08-20T15:13:11.030Z,2413.13
2022-08-20T15:14:11.020Z,2514.38
2022-08-20T15:15:15.549Z,2570.63
2022-08-20T15:16:10.991Z,2655.00
2022-08-20T15:17:10.992Z,2559.38
2022-08-20T15:18:10.987Z,2520.00
2022-08-20T15:19:10.982Z,2655.00
2022-08-20T15:20:10.961Z,2542.50
2022-08-20T15:21:10.967Z,2368.13
2022-08-20T15:22:10.955Z,2424.38
2022-08-20T15:23:10.967Z,2593.13
2022-08-20T15:24:15.776Z,2351.25
2022-08-20T15:25:10.938Z,2283.75
2022-08-20T15:26:10.924Z,2300.63
2022-08-20T15:27:10.915Z,2317.50
2022-08-20T15:28:10.922Z,2475.00
2022-08-20T15:29:10.912Z,2565.00
2022-08-20T15:30:10.911Z,2351.25
2022-08-20T15:31:10.902Z,2272.50
2022-08-20T15:32:10.885Z,2323.13
2022-08-20T15:33:10.900Z,2261.25
2022-08-20T15:34:10.883Z,2227.50
2022-08-20T15:35:10.879Z,2272.50
2022-08-20T15:36:10.871Z,2216.25
2022-08-20T15:37:10.853Z,2216.25
2022-08-20T15:38:10.873Z,2238.75
2022-08-20T15:39:10.845Z,2345.63
2022-08-20T15:40:10.981Z,2323.13
2022-08-20T15:41:10.831Z,2188.13
2022-08-20T15:42:10.827Z,2120.63
2022-08-20T15:43:10.826Z,2176.88
2022-08-20T15:44:10.826Z,2255.63
2022-08-20T15:45:10.816Z,2328.75
2022-08-20T15:46:10.802Z,2216.25
2022-08-20T15:47:10.808Z,2075.63
2022-08-20T15:48:10.803Z,2098.13
2022-08-20T15:49:10.804Z,2098.13
2022-08-20T15:50:14.116Z,2002.50
2022-08-20T15:51:10.787Z,1951.88
2022-08-20T15:52:10.771Z,1957.50
2022-08-20T15:53:10.787Z,1991.25
2022-08-20T15:54:10.781Z,2053.13
2022-08-20T15:55:10.756Z,2086.88
2022-08-20T15:56:11.224Z,2154.38
2022-08-20T15:57:10.746Z,2075.63
2022-08-20T15:58:10.747Z,2064.38
2022-08-20T15:59:10.753Z,2148.75
2022-08-20T16:00:10.727Z,2148.75
2022-08-20T16:01:24.690Z,2126.25
2022-08-20T16:02:10.723Z,2081.25
2022-08-20T16:03:10.717Z,2092.50
2022-08-20T16:04:10.732Z,2070.00
2022-08-20T16:05:10.714Z,2025.00
2022-08-20T16:06:13.865Z,2120.63
2022-08-20T16:07:10.694Z,2216.25
2022-08-20T16:08:10.693Z,2098.13
2022-08-20T16:09:10.699Z,1923.75
2022-08-20T16:10:15.087Z,1878.75
2022-08-20T16:11:10.674Z,1935.00
2022-08-20T16:12:10.677Z,2019.38
2022-08-20T16:13:10.660Z,2002.50
2022-08-20T16:14:10.669Z,1980.00
2022-08-20T16:15:10.648Z,1957.50
2022-08-20T16:16:10.642Z,1957.50
2022-08-20T16:17:10.637Z,1901.25
2022-08-20T16:18:10.639Z,1912.50
2022-08-20T16:19:10.641Z,1929.38
2022-08-20T16:20:10.621Z,1878.75
2022-08-20T16:21:10.626Z,1850.63
2022-08-20T16:22:10.618Z,1884.38
2022-08-20T16:23:10.615Z,1890.00
2022-08-20T16:24:10.790Z,1822.50
2022-08-20T16:25:10.610Z,1901.25
2022-08-20T16:26:10.600Z,1957.50
2022-08-20T16:27:10.586Z,1839.38
2022-08-20T16:28:10.591Z,1800.00
2022-08-20T16:29:11.656Z,1845.00
2022-08-20T16:30:10.572Z,1794.38
2022-08-20T16:31:14.018Z,1833.75
2022-08-20T16:32:10.562Z,1878.75
2022-08-20T16:33:10.555Z,1816.88
2022-08-20T16:34:32.273Z,1749.38
2022-08-20T16:35:10.554Z,1732.50
2022-08-20T16:36:10.553Z,1659.38
2022-08-20T16:37:10.568Z,1631.25
2022-08-20T16:38:10.530Z,1586.25
2022-08-20T16:39:10.548Z,1625.63
2022-08-20T16:40:10.551Z,1681.88
2022-08-20T16:41:10.520Z,1681.88
2022-08-20T16:42:10.509Z,1636.88
2022-08-20T16:43:10.510Z,1608.75
2022-08-20T16:44:10.519Z,1603.13
2022-08-20T16:45:10.497Z,1580.63
2022-08-20T16:46:10.494Z,1569.38
2022-08-20T16:47:13.896Z,1597.50
2022-08-20T16:48:10.479Z,1546.88
2022-08-20T16:49:10.494Z,1440.00
2022-08-20T16:50:10.462Z,1440.00
2022-08-20T16:51:10.457Z,1485.00
2022-08-20T16:52:10.453Z,1350.00
2022-08-20T16:53:10.454Z,1164.38
2022-08-20T16:54:10.450Z,1085.63
2022-08-20T16:55:10.430Z,1378.13
2022-08-20T16:56:10.430Z,1293.75
2022-08-20T16:57:15.117Z,1125.00
2022-08-20T16:58:10.411Z,956.25
2022-08-20T16:59:10.427Z,556.88
2022-08-20T17:00:10.395Z,607.50
2022-08-20T17:01:10.466Z,562.50
2022-08-20T17:02:10.891Z,393.75
2022-08-20T17:03:10.378Z,337.50
2022-08-20T17:04:10.389Z,382.50
2022-08-20T17:05:10.357Z,303.75
2022-08-20T17:06:10.347Z,275.63
2022-08-20T17:07:11.903Z,275.63
2022-08-20T17:08:10.343Z,258.75
2022-08-20T17:09:10.436Z,258.75
2022-08-20T17:10:10.308Z,247.50
2022-08-20T17:11:10.312Z,241.88
2022-08-20T17:12:10.300Z,236.25
2022-08-20T17:13:10.276Z,230.63
2022-08-20T17:14:10.291Z,225.00
